Nearby METAR Reports

 

KBFI - Seattle/Boeing, Washington, USA
Distance from station: S 10mi, 16km
Updated: Tue, 17-Jul-2018 8:53pm PDT
Clear
Clear
 Wind from varies
Wind: varies 7 mph , 11 km/h
Temperature: 70°F , 21°C
Dew Point: 55°F , 13°C
Humidity: 60%
Barometer: 30.02 inHg , 1016.6 hPa
Clouds: Clear
Visibility: 10 miles , 16 km
2018/07/18 03:53 KBFI 180353Z VRB06KT 10SM CLR 21/13 A3002 RMK AO2 SLP166 T02110128
KRNT - Renton, Washington, USA
Distance from station: SSE 14mi, 23km
Updated: Tue, 17-Jul-2018 8:53pm PDT
Clear
Clear
 Wind from SSW
Wind: SSW 10 mph , 17 km/h
Temperature: 72°F , 22°C
Dew Point: 55°F , 13°C
Humidity: 57%
Barometer: 30.02 inHg , 1016.6 hPa
Clouds: Clear
Visibility: 10 miles , 16 km
2018/07/18 03:53 KRNT 180353Z AUTO 21009KT 10SM CLR 22/13 A3002 RMK AO2 SLP169 T02220128 $
 
KPAE - Everett, Washington, USA
Distance from station: N 15mi, 25km
Updated: Tue, 17-Jul-2018 8:53pm PDT
Clear
Clear
 Wind from NNW
Wind: NNW 8 mph , 13 km/h
Temperature: 61°F , 16°C
Dew Point: 55°F , 13°C
Humidity: 83%
Barometer: 30.03 inHg , 1016.9 hPa
Clouds: Clear
Visibility: 10 miles , 16 km
2018/07/18 03:53 KPAE 180353Z AUTO 34007KT 10SM CLR 16/13 A3003 RMK AO2 SLP165 T01610133
KSEA - Seattle/Metro, Washington, USA
Distance from station: S 17mi, 27km
Updated: Tue, 17-Jul-2018 8:53pm PDT
Clear
Clear
 Wind from SW
Wind: SW 13 mph , 20 km/h, Gust: 20 mph , 31 km/h
Temperature: 66°F , 19°C
Dew Point: 55°F , 13°C
Humidity: 68%
Barometer: 30.04 inHg , 1017.3 hPa
Clouds: Clear
Visibility: 10 miles , 16 km
2018/07/18 03:53 KSEA 180353Z 23011G17KT 10SM CLR 19/13 A3004 RMK AO2 SLP177 T01890128
 
KPWT - Bremerton Ntnl, Washington, USA
Distance from station: SW 24mi, 39km
Updated: Tue, 17-Jul-2018 8:56pm PDT
Clear
Clear
 Wind from SSW
Wind: SSW 7 mph , 11 km/h
Temperature: 61°F , 16°C
Dew Point: 55°F , 13°C
Humidity: 83%
Barometer: 30.04 inHg , 1017.3 hPa
Clouds: Clear
Visibility: 10 miles , 16 km
2018/07/18 03:56 KPWT 180356Z AUTO 21006KT 10SM CLR 16/13 A3004 RMK AO2 SLP189 T01610133
KTIW - Tacoma, Washington, USA
Distance from station: SSW 32mi, 52km
Updated: Tue, 17-Jul-2018 8:53pm PDT
Clear
Clear
 Wind from varies
Wind: varies 6 mph , 9 km/h
Temperature: 61°F , 16°C
Dew Point: 55°F , 13°C
Humidity: 83%
Barometer: 30.05 inHg , 1017.6 hPa
Clouds: Clear
Visibility: 10 miles , 16 km
2018/07/18 03:53 KTIW 180353Z AUTO VRB05KT 10SM CLR 16/13 A3005 RMK AO2 SLP175 T01610128
 
KAWO - Arlington Muni, Washington, USA
Distance from station: N 33mi, 54km
Updated: Tue, 17-Jul-2018 8:56pm PDT
Clear
Clear
 Wind from NW
Wind: NW 6 mph , 9 km/h
Temperature: 64°F , 18°C
Dew Point: 55°F , 13°C
Humidity: 73%
Barometer: 30.02 inHg , 1016.6 hPa
Clouds: Clear
Visibility: 10 miles , 16 km
2018/07/18 03:56 KAWO 180356Z AUTO 31005KT 10SM CLR 18/13 A3002 RMK AO2 SLP170 T01830128
KTCM - Tacoma/Mc Chord, Washington, USA
Distance from station: S 41mi, 65km
Updated: Tue, 17-Jul-2018 8:58pm PDT
Clear
Clear
 Wind from NW
Wind: NW 8 mph , 13 km/h
Temperature: 64°F , 18°C
Dew Point: 61°F , 16°C
Humidity: 88%
Barometer: 30.05 inHg , 1017.6 hPa
Clouds: Clear
Visibility: 10 miles , 16 km
2018/07/18 03:58 KTCM 180358Z AUTO 31007KT 10SM CLR 18/16 A3005 RMK AO2 SLP179 T01790157 $
 
KPLU - Puyallup/Thun, Washington, USA
Distance from station: S 41mi, 66km
Updated: Tue, 17-Jul-2018 9:15pm PDT
Clear
Clear
 Wind from calm
Wind: Calm
Temperature: 68°F , 20°C
Dew Point: 59°F , 15°C
Humidity: 73%
Barometer: 30.06 inHg , 1017.9 hPa
Clouds: Clear
Visibility: 10 miles , 16 km
2018/07/18 04:15 KPLU 180415Z AUTO 00000KT 10SM CLR 20/15 A3006 RMK AO2
KGRF - Fort Lewis/Gray, Washington, USA
Distance from station: SSW 45mi, 72km
Updated: Tue, 17-Jul-2018 8:58pm PDT
Clear
Clear
 Wind from W
Wind: W 9 mph , 15 km/h
Temperature: 64°F , 18°C
Dew Point: 61°F , 16°C
Humidity: 88%
Barometer: 30.05 inHg , 1017.6 hPa
Clouds: Clear
Visibility: 10 miles , 16 km
2018/07/18 03:58 KGRF 180358Z 26008KT 10SM CLR 18/16 A3005 RMK AO2A SLP179
 
KNUW - Whidbey Is. Nas, Washington, USA
Distance from station: NNW 48mi, 77km
Updated: Tue, 17-Jul-2018 8:56pm PDT
Partly cloudy
Partly cloudy
 Wind from WSW
Wind: WSW 10 mph , 17 km/h
Temperature: 61°F , 16°C
Dew Point: 54°F , 12°C
Humidity: 77%
Barometer: 30.04 inHg , 1017.3 hPa
Clouds: Partly cloudy
Visibility: 10 miles , 16 km
Cloud details: Few Clouds 5000 ft
Few Clouds 12000 ft
Partly cloudy 25000 ft
2018/07/18 03:56 KNUW 180356Z 24009KT 10SM FEW050 FEW120 SCT250 16/12 A3004 RMK AO2 SLP173 T01610117 $
KSHN - Shelton, Washington, USA
Distance from station: SW 50mi, 80km
Updated: Tue, 17-Jul-2018 8:53pm PDT
Overcast
Overcast
 Wind from WSW
Wind: WSW 20 mph , 31 km/h, Gust: 29 mph , 46 km/h
Temperature: 63°F , 17°C
Dew Point: 55°F , 13°C
Humidity: 77%
Barometer: 30.03 inHg , 1016.9 hPa
Clouds: Overcast
Visibility: 10 miles , 16 km
Cloud details: Overcast 1200 ft
2018/07/18 03:53 KSHN 180353Z AUTO 24017G25KT 10SM OVC012 17/13 A3003 RMK AO2 PK WND 23027/0322 SLP169 T01670133